ADDS METAR Data INFO
IDs: Format: Raw Decoded Include TAF

Data at: 2257 UTC 22 Jun 2018

KLWV 222253Z AUTO 31010KT 10SM FEW060 FEW075 SCT120 25/19 A2967 RMK AO2 LTG DSNT N AND NE AND SW SLP043 T02500194
KLWV 222217Z AUTO 27010KT 10SM SCT022 25/19 A2967 RMK AO2 LTG DSNT ALQDS T02500189
KLWV 222208Z AUTO 28009KT 10SM BKN022 26/20 A2966 RMK AO2 LTG DSNT ALQDS T02560200
KLWV 222153Z AUTO 26006KT 10SM SCT022 SCT042 BKN100 24/21 A2966 RMK AO2 PK WND 31028/2055 LTG DSNT ALQDS RAB2056E12B32E44 SLP041 P0008 T02440211
KLWV 222107Z AUTO 32005KT 3SM -RA FEW034 BKN049 OVC060 22/19 A2966 RMK AO2 PK WND 31028/2055 LTG DSNT NW RAB2056 P0008 T02220194
KLWV 222058Z AUTO 32010G28KT 1 1/2SM +RA FEW029 SCT039 BKN049 23/19 A2966 RMK AO2 PK WND 31028/2055 LTG DSNT NW RAB56 P0007 T02280189
KLWV 222053Z AUTO 33011G16KT 10SM FEW029 SCT039 BKN055 24/19 A2966 RMK AO2 LTG DSNT NW RAB20E33 SLP041 P0004 60004 T02440189 56007
KLWV 222037Z AUTO 30007KT 10SM FEW044 SCT065 BKN080 25/19 A2966 RMK AO2 LTG DSNT W-N RAB20E33 P0004 T02500189
KLWV 222028Z AUTO VRB04KT 2SM -RA FEW045 BKN065 BKN080 24/18 A2966 RMK AO2 LTG DSNT N AND W RAB20 P0004 T02440183
KLWV 221953Z AUTO 26008KT 10SM FEW029 26/18 A2967 RMK AO2 LTG DSNT N SLP043 T02560183
KLWV 221853Z AUTO 24005KT 10SM FEW046 OVC070 23/19 A2968 RMK AO2 RAB20E50 SLP045 P0000 T02330189
KLWV 221753Z AUTO 18005KT 10SM SCT023 BKN030 OVC060 23/17 A2968 RMK AO2 RAB03E16 SLP048 P0000 60008 T02330172 10233 20194 58008
KLWV 221653Z AUTO 14003KT 10SM FEW021 BKN049 OVC070 23/18 A2970 RMK AO2 SLP053 T02280178
KLWV 221633Z AUTO 13005KT 10SM FEW018 BKN035 OVC050 22/18 A2970 RMK AO2 T02220178
KLWV 221553Z AUTO 12007KT 10SM SCT015 BKN021 OVC070 22/18 A2970 RMK AO2 SLP055 T02220178
KLWV 221453Z AUTO 16003KT 10SM SCT010 BKN060 OVC095 21/18 A2971 RMK AO2 RAE14 SLP057 P0001 60008 T02110178 58002
KLWV 221441Z AUTO 00000KT 10SM SCT009 BKN060 OVC095 21/18 A2971 RMK AO2 RAE14 P0001 T02060178
KLWV 221353Z AUTO 15008KT 8SM -RA BKN070 OVC085 20/17 A2971 RMK AO2 SLP058 P0004 T02000172
KLWV 221253Z AUTO 16005KT 6SM -RA BR SCT055 OVC090 20/18 A2972 RMK AO2 RAB1157E18B39 SLP060 P0003 T02000178
KLWV 221153Z AUTO 17004KT 10SM FEW070 BKN085 BKN120 20/18 A2971 RMK AO2 SLP058 70037 T02000183 10211 20194 53009
KLWV 221053Z AUTO 16004KT 10SM OVC120 19/18 A2970 RMK AO2 SLP055 T01940178
KLWV 220953Z AUTO 18003KT 10SM OVC080 19/17 A2969 RMK AO2 SLP050 T01940172
KLWV 220853Z AUTO 19003KT 10SM CLR 20/18 A2969 RMK AO2 SLP048 T02000178 55004
KLWV 220753Z AUTO 21004KT 10SM BKN110 20/18 A2968 RMK AO2 SLP046 T02000178
KLWV 220653Z AUTO 19006KT 10SM CLR 21/18 A2968 RMK AO2 SLP047 T02060183
KLWV 220553Z AUTO 00000KT 10SM FEW043 21/18 A2970 RMK AO2 SLP052 T02110183 10250 20211 402940211 58007
KLWV 220453Z AUTO 27003KT 10SM CLR 21/18 A2972 RMK AO2 SLP060 T02110178
KLWV 220353Z AUTO 28005KT 10SM CLR 22/18 A2973 RMK AO2 LTG DSNT N SLP063 T02170183
KLWV 220253Z AUTO 23006KT 10SM FEW031 BKN046 24/19 A2972 RMK AO2 LTG DSNT N SLP059 T02390194 53010
KLWV 220153Z AUTO 21006KT 10SM FEW030 24/21 A2969 RMK AO2 LTG DSNT NE AND NW SLP050 T02440211
KLWV 220053Z AUTO 18003KT 10SM FEW023 SCT028 BKN110 25/21 A2970 RMK AO2 LTG DSNT W SLP051 T02500211
KLWV 212353Z AUTO 11005KT 10SM SCT025 BKN034 25/21 A2969 RMK AO2 SLP049 60004 T02500206 10294 20222 53003
KLWV 212253Z AUTO 00000KT 10SM FEW060 SCT085 BKN110 25/18 A2966 RMK AO2 LTG DSNT NE AND E RAB07E46 SLP041 P0004 T02500178
KLWV 212213Z AUTO 33011KT 9SM -RA FEW025 BKN033 BKN040 23/19 A2969 RMK AO2 LTG DSNT NE RAB07 P0001 T02280194
KLWV 212153Z AUTO 32019G26KT 10SM VCTS FEW043 BKN110 25/19 A2969 RMK AO2 PK WND 30026/2149 LTG DSNT N RAB26E44 SLP050 P0000 T02500194
KLWV 212053Z AUTO 21011KT 10SM FEW033 SCT047 BKN055 29/21 A2968 RMK AO2 LTG DSNT W AND NW SLP046 T02890211 58014
KLWV 211953Z AUTO 22010KT 10SM FEW033 SCT060 29/21 A2970 RMK AO2 SLP052 T02940211
KLWV 211853Z AUTO 20011KT 10SM FEW037 SCT049 BKN060 28/21 A2971 RMK AO2 SLP057 T02780206
KLWV 211753Z AUTO 21007KT 10SM SCT024 SCT030 BKN042 28/22 A2972 RMK AO2 SLP060 60033 T02780217 10278 20222 58016
KLWV 211653Z AUTO 20009KT 10SM FEW017 BKN033 BKN049 26/22 A2975 RMK AO2 SLP070 T02610217
KLWV 211629Z AUTO 19009KT 10SM FEW014 SCT021 BKN040 25/22 A2976 RMK AO2 T02500217
KLWV 211612Z AUTO 20009KT 10SM SCT012 BKN018 BKN036 26/22 A2977 RMK AO2 T02560222
KLWV 211553Z AUTO 20008KT 10SM BKN014 BKN022 OVC035 24/21 A2977 RMK AO2 SLP076 T02440211
KLWV 211550Z AUTO 20009KT 10SM SCT011 BKN018 OVC035 24/21 A2977 RMK AO2
KLWV 211507Z AUTO 20010KT 10SM BKN010 OVC018 23/21 A2977 RMK AO2 CIG 006V013 T02330211
KLWV 211453Z AUTO 19009KT 10SM SCT007 OVC016 23/21 A2978 RMK AO2 RAE34 SLP079 P0000 60033 T02330211 58005
KLWV 211412Z AUTO 21008KT 6SM -RA BR SCT007 OVC025 23/21 A2979 RMK AO2 P0000 T02280206
KLWV 211353Z AUTO 21009KT 5SM -RA BR BKN007 OVC011 22/21 A2979 RMK AO2 CIG 005V009 SLP083 P0029 T02220206
KLWV 211329Z AUTO 20007KT 4SM -RA BR BKN006 BKN018 OVC028 22/21 A2980 RMK AO2 P0029 T02220206
KLWV 211327Z AUTO 19007KT 1 1/2SM -RA BR BKN006 BKN020 OVC030 22/21 A2980 RMK AO2 P0029 T02220206
KLWV 211320Z AUTO 21007KT 1/2SM +RA FG SCT006 BKN020 OVC031 22/21 A2979 RMK AO2 P0028 T02220206
KLWV 211309Z AUTO 21009KT 1 3/4SM +RA BR SCT006 BKN010 OVC027 23/21 A2979 RMK AO2 P0006 T02280211
KLWV 211253Z AUTO 20009KT 8SM -RA BKN008 OVC012 23/21 A2979 RMK AO2 CIG 005V011 SLP084 P0004 T02280211
KLWV 211153Z AUTO 20009KT 4SM RA BR BKN008 BKN014 OVC026 23/21 A2979 RMK AO2 CIG 005V011 SLP084 P0005 60014 70014 T02280211 10250 20228 55000